Home   Weather   USA   Fairbury   Past weeks
Flag for USA

Past Weather in Fairbury, Nebraska, USA — Yesterday and Last 2 Weeks

Currently: 12 °F. Clear. (Weather station: Hebron Municipal Airport, USA). See more current weather

Past Weather in Fairbury — Graph

°F

Fairbury Temperature Yesterday

Maximum temperature yesterday: 23 °F (at 3:55 pm)
Minimum temperature yesterday: 1 °F (at 4:35 am)
Average temperature yesterday: 11 °F

High & Low Weather Summary for the Past Weeks

 TemperatureHumidityPressure
High40 °F (Jan 17, 4:15 pm)100% (Jan 18, 7:15 pm)30.52 "Hg (Jan 18, 7:15 pm)
Low1 °F (Jan 31, 4:35 am)45% (Jan 31, 2:55 pm)29.52 "Hg (Jan 18, 12:35 pm)
Average22 °F85%30.09 "Hg
* Reported Jan 17 6:55 am — Feb 1 6:55 am, Fairbury. Weather by CustomWeather, © 2023

Note: Actual official high and low records may vary slightly from our data, if they occured in-between our weather recording intervals... More about our weather records

Fairbury Weather History for the Previous 24 Hours

Scroll right to see more
 ConditionsComfort  
Time TempWeatherWind HumidityBarometerVisibility
6:55 am
Wed, Feb 1
12 °FClear.3 mph70%30.23 "Hg10 mi
6:15 am10 °FClear.No wind72%30.24 "Hg10 mi
5:55 am10 °FClear.No wind71%30.24 "Hg10 mi
5:35 am11 °FClear.No wind69%30.24 "Hg10 mi
5:15 am11 °FClear.3 mph69%30.24 "Hg10 mi
4:55 am11 °FClear.5 mph70%30.24 "Hg10 mi
4:35 am11 °FClear.6 mph69%30.25 "Hg10 mi
4:15 am12 °FClear.6 mph68%30.25 "Hg10 mi
3:35 am12 °FClear.5 mph68%30.26 "Hg10 mi
3:15 am13 °FClear.5 mph64%30.26 "Hg10 mi
2:55 am14 °FClear.5 mph61%30.26 "Hg10 mi
2:35 am12 °FClear.No wind68%30.27 "Hg10 mi
2:15 am13 °FClear.No wind67%30.27 "Hg10 mi
1:55 am10 °FClear.3 mph74%30.27 "Hg10 mi
1:35 am10 °FClear.No wind70%30.27 "Hg10 mi
12:55 am10 °FClear.No wind70%30.28 "Hg10 mi
12:15 am14 °FClear.3 mph64%30.28 "Hg10 mi
11:55 pm
Tue, Jan 31
11 °FClear.7 mph70%30.28 "Hg10 mi
11:35 pm8 °FClear.No wind76%30.29 "Hg10 mi
11:15 pm6 °FClear.No wind80%30.30 "Hg10 mi
10:55 pm9 °FClear.No wind75%30.30 "Hg10 mi
10:35 pm8 °FClear.No wind79%30.30 "Hg10 mi
9:55 pm7 °FClear.No wind79%30.31 "Hg10 mi
9:35 pm10 °FClear.No wind73%30.31 "Hg10 mi
9:15 pm12 °FClear.No wind70%30.30 "Hg10 mi
8:55 pm12 °FClear.5 mph70%30.30 "Hg10 mi
8:35 pm13 °FClear.6 mph69%30.30 "Hg10 mi
8:15 pm13 °FClear.6 mph68%30.30 "Hg10 mi
7:55 pm13 °FClear.3 mph69%30.29 "Hg10 mi
7:35 pm13 °FClear.3 mph69%30.29 "Hg10 mi
7:15 pm13 °FClear.No wind69%30.29 "Hg10 mi
6:55 pm14 °FClear.No wind70%30.30 "Hg10 mi
5:35 pm20 °FSunny.3 mph54%30.30 "Hg10 mi
4:55 pm22 °FSunny.7 mph45%30.30 "Hg10 mi
4:35 pm23 °FSunny.7 mph46%30.30 "Hg10 mi
4:15 pm23 °FSunny.8 mph47%30.29 "Hg10 mi
3:55 pm23 °FSunny.9 mph47%30.29 "Hg10 mi
3:35 pm23 °FSunny.9 mph47%30.29 "Hg10 mi
3:15 pm22 °FSunny.9 mph48%30.29 "Hg10 mi
2:55 pm22 °FSunny.8 mph45%30.29 "Hg10 mi
2:35 pm22 °FSunny.8 mph49%30.29 "Hg10 mi
2:15 pm22 °FSunny.8 mph50%30.30 "Hg10 mi
1:55 pm21 °FSunny.7 mph51%30.30 "Hg10 mi
1:35 pm20 °FSunny.9 mph51%30.31 "Hg10 mi
12:55 pm19 °FSunny.9 mph53%30.34 "Hg10 mi
12:35 pm18 °FSunny.8 mph57%30.35 "Hg10 mi
12:15 pm17 °FSunny.7 mph64%30.36 "Hg10 mi
11:55 am16 °FSunny.9 mph63%30.38 "Hg10 mi
11:35 am16 °FSunny.9 mph65%30.39 "Hg10 mi
11:15 am15 °FSunny.9 mph67%30.39 "Hg10 mi
10:55 am14 °FSunny.10 mph67%30.40 "Hg10 mi
10:15 am12 °FSunny.13 mph66%30.40 "Hg10 mi
9:55 am11 °FSunny.7 mph69%30.40 "Hg10 mi
9:35 am10 °FSunny.9 mph73%30.40 "Hg10 mi
9:15 am8 °FSunny.7 mph75%30.40 "Hg10 mi
8:55 am7 °FSunny.9 mph76%30.40 "Hg10 mi
8:15 am6 °FScattered clouds.6 mph77%30.39 "Hg10 mi
Weather by CustomWeather, © 2023

See weather overview